Station: Point Stuart

  Atmospheric Gas Attenuation - ITU Rec 676-11   --------------- db/100km ---------------
Date Time Temp RH % AH g/m3 Dew Point Wind Direction Speed kph Gust kph Barometer mB Rainfall Since 9am 24GHz 47GHz 76GHz 122GHz 134GHz 241GHz
07 07:10 19.6 100 16.88 19.6 9 9 1012.2 0 37.0 38.5 72.3 191.2 207.2 718.8
07 07:00 19.7 100 16.98 19.7 7 11 1012 0 37.2 38.6 72.7 192.2 208.5 723.2
07 06:50 19.9 99 17.01 19.7 7 9 1011.9 0 37.2 38.6 72.7 192.1 208.4 722.9
07 06:40 19.9 99 17.01 19.7 9 9 1011.6 0 37.2 38.6 72.6 192.0 208.3 722.7
07 06:30 20 99 17.11 19.8 13 13 1011.5 0 37.4 38.7 73.0 193.0 209.6 727.2
07 06:20 20 99 17.11 19.8 13 13 1011.4 0 37.4 38.7 73.0 193.0 209.6 727.2
07 06:10 19.9 99 17.01 19.7 13 13 1011.4 0 37.2 38.5 72.6 192.0 208.3 722.6
07 06:00 19.7 98 16.64 19.4 9 11 1011.3 0 36.4 37.9 71.0 187.8 203.0 704.3
07 05:50 19.7 96 16.3 19 9 9 1011.2 0 35.7 37.3 69.4 183.4 197.7 685.8
07 05:40 19.9 96 16.49 19.2 7 9 1011 0 36.1 37.5 70.1 185.3 200.1 694.1
07 05:30 19.9 97 16.66 19.4 7 9 1010.9 0 36.5 37.9 70.9 187.4 202.7 703.3
07 05:20 20 96 16.59 19.3 7 7 1010.8 0 36.3 37.7 70.5 186.3 201.3 698.5
07 05:10 20.1 95 16.51 19.3 7 9 1010.7 0 36.1 37.5 70.0 185.0 199.8 693.2
07 04:50 20.3 94 16.53 19.3 11 13 1010.6 0 36.2 37.4 69.9 184.8 199.6 692.4
07 04:40 20.4 94 16.63 19.4 11 13 1010.5 0 36.4 37.6 70.3 185.8 200.8 696.8
07 04:30 20.5 94 16.72 19.5 9 13 1010.5 0 36.5 37.7 70.6 186.7 202.0 700.7
07 04:20 20.5 96 17.08 19.8 9 9 1010.5 0 37.3 38.4 72.3 191.2 207.6 720.2
07 04:10 20.6 94 16.82 19.6 7 7 1010.4 0 36.8 37.8 71.0 187.7 203.2 705.1
07 04:00 20.7 92 16.56 19.4 7 11 1010.4 0 36.2 37.3 69.7 184.1 198.9 690.2
07 03:50 21 91 16.67 19.5 11 11 1010.4 0 36.4 37.4 69.9 184.8 199.8 693.4
07 03:40 21.1 92 16.95 19.7 9 11 1010.3 0 37.0 37.8 71.1 188.0 203.9 707.4
07 03:30 21.2 91 16.86 19.7 9 11 1010.4 0 36.8 37.6 70.6 186.7 202.2 701.7
07 03:20 21.3 91 16.96 19.8 9 11 1010.5 0 37.0 37.8 71.0 187.7 203.5 706.2
07 03:10 21.4 92 17.25 20 7 9 1010.6 0 37.6 38.3 72.3 191.1 207.7 720.9
07 03:00 21.4 91 17.06 19.9 9 11 1010.6 0 37.2 37.9 71.4 188.7 204.8 710.7
07 02:50 21.8 90 17.27 20.1 9 9 1010.7 0 37.6 38.1 72.0 190.4 206.9 718.2
07 02:40 21.8 91 17.46 20.3 9 9 1010.8 0 38.0 38.5 72.9 192.8 209.9 728.5
07 02:30 21.6 91 17.26 20.1 9 9 1010.8 0 37.6 38.2 72.2 190.8 207.3 719.6
07 02:20 21.6 92 17.45 20.2 7 7 1010.9 0 38.0 38.6 73.1 193.2 210.3 729.9
07 02:10 21.5 91 17.16 20 7 7 1011 0 37.4 38.1 71.8 189.8 206.1 715.3
07 02:00 21.7 89 16.98 19.8 7 11 1011 0 37.0 37.7 70.7 187.0 202.8 703.8
07 01:50 21.9 88 16.98 19.8 11 11 1011.1 0 37.0 37.6 70.6 186.6 202.3 702.0
07 01:40 22.4 86 17.08 19.9 9 11 1011.1 0 37.1 37.5 70.6 186.6 202.4 702.6
07 01:30 23 85 17.47 20.3 9 11 1011.2 0 37.9 38.0 71.8 189.9 206.7 717.7
07 01:20 22.9 86 17.57 20.4 9 11 1011.3 0 38.1 38.2 72.4 191.5 208.6 724.1
07 01:10 23 85 17.47 20.3 9 11 1011.3 0 37.9 38.0 71.8 190.0 206.8 717.8
07 01:00 23.3 84 17.56 20.4 11 15 1011.4 0 38.1 38.0 72.0 190.3 207.3 719.8
07 00:50 23.6 83 17.65 20.5 13 13 1011.4 0 38.2 38.1 72.1 190.7 207.9 721.7
07 00:40 24 82 17.84 20.7 13 13 1011.5 0 38.6 38.2 72.6 192.1 209.6 728.0
07 00:30 24.1 81 17.72 20.6 13 15 1011.5 0 38.3 38.0 72.0 190.3 207.5 720.7
07 00:20 24.2 80 17.6 20.5 15 15 1011.5 0 38.1 37.7 71.3 188.6 205.5 713.4
07 00:10 24.4 78 17.36 20.3 17 17 1011.5 0 37.5 37.2 70.0 185.2 201.3 699.0
07 00:00 24.6 77 17.33 20.3 15 20 1011.5 0 37.5 37.0 69.7 184.3 200.3 695.7
06 23:50 24.7 76 17.2 20.2 15 19 1011.6 0 37.2 36.8 69.0 182.5 198.2 688.1
06 23:40 24.9 76 17.4 20.4 15 17 1011.6 0 37.6 37.0 69.8 184.5 200.6 696.6
06 23:30 24.9 76 17.4 20.4 17 22 1011.7 0 37.6 37.0 69.8 184.5 200.6 696.6
06 23:20 25.1 77 17.82 20.8 19 20 1011.7 0 38.5 37.7 71.5 189.1 206.3 716.5
06 23:10 25 77 17.72 20.7 17 20 1011.8 0 38.2 37.6 71.1 188.1 205.1 712.3
06 23:00 25.2 77 17.93 20.9 19 22 1011.7 0 38.7 37.9 71.9 190.2 207.7 721.3
06 22:50 25.3 77 18.03 21 19 20 1011.6 0 38.9 38.0 72.3 191.1 208.9 725.5
06 22:40 25.3 77 18.03 21 17 20 1011.6 0 38.9 38.0 72.3 191.1 208.9 725.5
06 22:30 25.3 80 18.73 21.6 17 22 1011.6 0 40.4 39.3 75.5 199.8 219.5 762.4
06 22:20 25.5 86 20.36 23 15 15 1011.6 0 43.8 42.3 83.1 219.9 244.2 848.4
06 22:10 25.7 84 20.11 22.8 19 22 1011.5 0 43.3 41.7 81.6 216.1 239.6 832.4
06 22:00 25.7 84 20.11 22.8 20 28 1011.4 0 43.3 41.7 81.6 216.0 239.6 832.4
06 21:50 25.8 85 20.46 23.1 20 24 1011.3 0 44.0 42.4 83.2 220.2 244.8 850.4
06 21:40 25.8 84 20.22 22.9 22 26 1011.3 0 43.5 41.9 82.0 217.1 241.0 837.2
06 21:30 25.9 83 20.09 22.8 22 28 1011.3 0 43.2 41.6 81.3 215.2 238.6 829.0
06 21:20 25.8 82 19.74 22.5 22 26 1011.2 0 42.5 41.0 79.7 211.0 233.5 811.1
06 21:10 25.9 84 20.34 23 20 26 1011 0 43.7 42.1 82.5 218.3 242.5 842.5
06 21:00 26 83 20.21 22.9 20 28 1011 0 43.4 41.8 81.8 216.4 240.1 834.3
06 20:50 25.9 84 20.34 23 24 28 1010.8 0 43.7 42.1 82.5 218.3 242.5 842.4
06 20:40 26 83 20.21 22.9 20 24 1010.6 0 43.4 41.8 81.7 216.3 240.1 834.0
06 20:30 26 84 20.45 23.1 20 26 1010.5 0 44.0 42.2 82.9 219.4 243.8 847.1
06 20:20 25.8 84 20.22 22.9 20 24 1010.4 0 43.5 41.9 82.0 217.0 240.8 836.7
06 20:10 25.8 83 19.98 22.7 19 20 1010.2 0 43.0 41.4 80.8 213.9 237.0 823.5
06 20:00 25.8 87 20.95 23.5 22 28 1010.2 0 45.0 43.3 85.5 226.4 252.4 876.8
06 19:50 25.8 88 21.19 23.7 20 26 1010.1 0 45.6 43.7 86.7 229.5 256.2 890.1
06 19:40 25.7 89 21.31 23.7 22 28 1010 0 45.8 44.0 87.4 231.4 258.5 898.0
06 19:30 25.5 92 21.78 24.1 19 26 1009.8 0 46.9 45.1 90.0 238.2 266.8 926.9
06 19:20 25.4 90 21.19 23.6 17 20 1009.8 0 45.6 43.9 87.1 230.7 257.6 894.7
06 19:10 25.4 90 21.19 23.6 17 20 1009.7 0 45.6 43.9 87.1 230.7 257.5 894.7
06 19:00 25.4 89 20.95 23.5 11 20 1009.7 0 45.1 43.5 86.0 227.5 253.7 881.2
06 18:50 25.5 86 20.36 23 13 19 1009.6 0 43.8 42.3 82.9 219.5 243.9 847.3
06 18:40 25.7 84 20.11 22.8 9 13 1009.5 0 43.3 41.7 81.5 215.7 239.3 831.3
06 18:30 26.1 80 19.59 22.4 9 13 1009.4 0 42.1 40.5 78.6 208.0 229.9 798.8
06 18:20 26.5 78 19.53 22.3 9 11 1009.3 0 42.0 40.2 77.9 206.1 227.8 791.3
06 18:10 26.7 77 19.49 22.3 11 13 1009.3 0 41.8 40.0 77.5 205.1 226.5 787.1
06 18:00 27.4 73 19.21 22.3 11 15 1009.3 0 41.2 39.1 75.5 199.8 220.2 765.3
06 17:50 27.4 73 19.21 22.1 11 13 1009.4 0 41.2 39.1 75.5 199.8 220.2 765.3
06 17:40 27.9 70 18.93 22.1 15 19 1009.3 0 40.5 38.4 73.7 195.1 214.6 745.8
06 17:30 28.2 70 19.25 22.2 13 20 1009.3 0 41.2 38.8 74.9 198.2 218.5 759.3
06 17:20 28.1 69 18.87 21.9 13 17 1009.3 0 40.4 38.2 73.3 193.9 213.2 740.8
06 17:10 28.5 67 18.73 21.8 13 19 1009.3 0 40.1 37.8 72.3 191.2 210.0 729.8
06 17:00 28.5 66 18.45 21.5 11 19 1009.3 0 39.5 37.3 71.0 187.9 205.9 715.7
06 16:50 28.3 65 17.97 21.3 13 17 1009.2 0 38.5 36.5 69.1 182.7 199.6 693.5
06 16:40 28.8 65 18.47 21.6 15 19 1009.2 0 39.5 37.2 70.8 187.4 205.4 713.9
06 16:30 29.1 62 17.91 21.3 15 24 1009.1 0 38.3 36.0 68.1 180.2 196.6 683.3
06 16:20 29.4 62 18.2 21.4 15 20 1009.1 0 38.8 36.4 69.1 182.8 199.9 694.9
06 16:10 28.8 64 18.19 21.3 13 17 1009.1 0 38.9 36.7 69.6 184.1 201.4 699.8
06 16:00 29.5 63 18.6 21.7 13 20 1009.1 0 39.7 37.1 70.7 187.2 205.4 713.8
06 15:50 29.4 62 18.2 21.4 13 17 1009 0 38.9 36.4 69.1 182.8 199.9 694.9
06 15:40 30.3 60 18.5 21.9 17 20 1009 0 39.4 36.6 69.6 184.1 201.8 701.5
06 15:30 29.3 63 18.4 21.5 13 20 1009.1 0 39.3 36.8 70.1 185.4 203.0 705.7
06 15:20 29.7 61 18.2 21.4 15 19 1009 0 38.8 36.3 68.8 182.1 199.1 692.2
06 15:10 29.5 61 18.01 21.2 17 20 1009.1 0 38.4 36.0 68.2 180.4 197.0 684.7
06 15:00 30.2 60 18.4 21.6 15 24 1009.2 0 39.2 36.4 69.3 183.2 200.7 697.6
06 14:50 29.6 60 17.81 21 13 19 1009.4 0 38.0 35.7 67.3 177.9 194.0 674.1
06 14:40 30.2 60 18.4 21.6 20 22 1009.6 0 39.2 36.4 69.3 183.3 200.7 697.8
06 14:30 30.4 59 18.29 21.5 15 26 1009.7 0 38.9 36.2 68.6 181.6 198.7 690.6

Last Refresh: 07-Aug-2020 07:24:07

Most of the information presented on this site is sourced from the Bureau of Meteorology.  Copyright in all material sourced from the Bureau of Meteorology resides with the Commonwealth of Australia.